createdAt,value
2019-02-21T00:01:57.298Z,7.70
2019-02-21T00:04:38.281Z,7.70
2019-02-21T00:07:19.170Z,7.70
2019-02-21T00:10:00.469Z,7.70
2019-02-21T00:12:41.611Z,7.60
2019-02-21T00:15:22.019Z,7.60
2019-02-21T00:18:02.685Z,7.60
2019-02-21T00:20:43.499Z,7.60
2019-02-21T00:23:24.080Z,7.60
2019-02-21T00:26:04.938Z,7.60
2019-02-21T00:35:11.959Z,7.70
2019-02-21T00:44:01.453Z,7.60
2019-02-21T00:46:41.915Z,7.50
2019-02-21T00:49:22.889Z,7.60
2019-02-21T00:52:03.230Z,7.60
2019-02-21T00:54:44.007Z,6.80
2019-02-21T00:57:24.875Z,7.60
2019-02-21T01:00:05.456Z,7.70
2019-02-21T01:02:46.331Z,7.70
2019-02-21T01:05:26.785Z,7.70
2019-02-21T01:08:07.762Z,7.70
2019-02-21T01:10:48.018Z,7.70
2019-02-21T01:13:28.422Z,7.70
2019-02-21T01:16:09.211Z,7.70
2019-02-21T01:18:50.147Z,7.70
2019-02-21T01:21:31.051Z,7.70
2019-02-21T01:24:11.833Z,7.80
2019-02-21T01:29:35.166Z,7.90
2019-02-21T01:32:15.690Z,7.90
2019-02-21T01:34:56.395Z,7.90
2019-02-21T01:37:36.963Z,7.90
2019-02-21T01:40:17.815Z,7.80
2019-02-21T01:42:58.936Z,7.80
2019-02-21T01:45:39.766Z,7.80
2019-02-21T01:48:20.103Z,7.80
2019-02-21T01:51:00.901Z,6.90
2019-02-21T01:53:42.027Z,7.80
2019-02-21T01:56:22.886Z,7.80
2019-02-21T01:59:03.915Z,7.80
2019-02-21T02:01:44.895Z,7.80
2019-02-21T02:04:25.716Z,7.80
2019-02-21T02:07:06.361Z,7.80
2019-02-21T02:09:47.249Z,7.80
2019-02-21T02:12:27.800Z,7.80
2019-02-21T02:15:08.246Z,7.80
2019-02-21T02:17:48.984Z,7.80
2019-02-21T02:20:29.599Z,7.80
2019-02-21T02:23:10.287Z,7.80
2019-02-21T02:25:51.124Z,7.80
2019-02-21T02:28:32.071Z,7.80
2019-02-21T02:31:21.948Z,7.80
2019-02-21T02:33:55.249Z,7.80
2019-02-21T02:36:36.190Z,7.80
2019-02-21T02:39:16.868Z,7.80
2019-02-21T02:41:57.934Z,7.80
2019-02-21T02:44:38.919Z,7.70
2019-02-21T02:47:19.913Z,7.80
2019-02-21T02:50:00.907Z,7.80
2019-02-21T02:52:41.539Z,7.80
2019-02-21T02:55:22.195Z,7.80
2019-02-21T02:58:05.768Z,7.80
2019-02-21T03:00:45.592Z,7.80
2019-02-21T03:03:26.589Z,7.80
2019-02-21T03:06:07.431Z,7.80
2019-02-21T03:08:48.052Z,6.60
2019-02-21T03:11:28.865Z,7.80
2019-02-21T03:14:09.598Z,7.80
2019-02-21T03:16:50.401Z,7.80
2019-02-21T03:19:31.428Z,7.80
2019-02-21T03:22:12.429Z,7.80
2019-02-21T03:24:52.968Z,7.70
2019-02-21T03:27:34.011Z,6.90
2019-02-21T03:30:14.677Z,7.80
2019-02-21T03:32:55.534Z,7.70
2019-02-21T03:35:36.368Z,7.70
2019-02-21T03:38:17.186Z,7.80
2019-02-21T03:40:58.025Z,7.50
2019-02-21T03:43:38.706Z,7.80
2019-02-21T03:46:19.492Z,7.40
2019-02-21T03:49:00.172Z,7.80
2019-02-21T03:51:41.154Z,7.80
2019-02-21T03:54:22.059Z,7.80
2019-02-21T03:57:02.817Z,7.80
2019-02-21T03:59:43.597Z,7.80
2019-02-21T04:02:23.838Z,7.80
2019-02-21T04:05:04.517Z,7.80
2019-02-21T04:07:45.120Z,7.80
2019-02-21T04:10:25.954Z,7.80
2019-02-21T04:13:06.492Z,7.80
2019-02-21T04:15:47.524Z,7.80
2019-02-21T04:18:28.349Z,7.80
2019-02-21T04:21:09.529Z,7.70
2019-02-21T04:23:50.530Z,7.70
2019-02-21T04:26:31.170Z,7.60
2019-02-21T04:29:12.021Z,7.60
2019-02-21T04:31:53.220Z,7.70
2019-02-21T04:34:33.976Z,7.60
2019-02-21T04:37:14.695Z,7.60
2019-02-21T04:39:55.575Z,7.60
2019-02-21T04:42:36.223Z,7.60
2019-02-21T04:45:17.033Z,7.50
2019-02-21T04:47:57.967Z,7.50
2019-02-21T04:50:38.840Z,7.50
2019-02-21T04:53:19.782Z,7.40
2019-02-21T04:56:00.626Z,7.40
2019-02-21T04:58:41.548Z,6.80
2019-02-21T05:01:22.452Z,7.40
2019-02-21T05:04:04.933Z,7.40
2019-02-21T05:06:45.522Z,7.40
2019-02-21T05:09:27.184Z,7.40
2019-02-21T05:12:07.744Z,7.40
2019-02-21T05:14:48.120Z,7.40
2019-02-21T05:17:29.223Z,7.30
2019-02-21T05:20:10.085Z,7.20
2019-02-21T05:22:50.757Z,7.20
2019-02-21T05:25:31.412Z,7.10
2019-02-21T05:31:21.392Z,7.10
2019-02-21T05:34:04.219Z,7.10
2019-02-21T05:36:46.178Z,7.00
2019-02-21T05:39:46.520Z,7.00
2019-02-21T05:42:31.407Z,6.90
2019-02-21T05:45:31.706Z,7.00
2019-02-21T05:51:06.862Z,7.00
2019-02-21T05:57:14.537Z,7.00
2019-02-21T05:59:59.599Z,7.00
2019-02-21T06:05:35.983Z,7.00
2019-02-21T06:08:36.061Z,7.00
2019-02-21T06:11:20.772Z,7.00
2019-02-21T06:14:02.862Z,6.60
2019-02-21T06:16:45.645Z,7.10
2019-02-21T06:19:28.713Z,7.10
2019-02-21T06:22:14.041Z,7.10
2019-02-21T06:24:56.875Z,7.10
2019-02-21T06:27:38.796Z,7.10
2019-02-21T06:30:21.226Z,7.10
2019-02-21T06:33:05.329Z,7.20
2019-02-21T06:35:44.960Z,7.20
2019-02-21T06:38:25.947Z,7.20
2019-02-21T06:41:06.936Z,7.20
2019-02-21T06:43:47.800Z,7.20
2019-02-21T06:46:28.429Z,7.20
2019-02-21T06:49:09.149Z,7.20
2019-02-21T06:51:50.247Z,7.30
2019-02-21T06:54:30.991Z,7.40
2019-02-21T06:57:11.966Z,7.30
2019-02-21T06:59:52.822Z,6.80
2019-02-21T07:02:33.383Z,7.50
2019-02-21T07:05:14.161Z,7.50
2019-02-21T07:07:55.087Z,7.50
2019-02-21T07:10:36.132Z,6.70
2019-02-21T07:13:25.999Z,7.70
2019-02-21T07:15:59.527Z,7.70
2019-02-21T07:18:40.976Z,7.70
2019-02-21T07:21:21.845Z,7.70
2019-02-21T07:24:02.459Z,7.70
2019-02-21T07:26:43.203Z,7.80
2019-02-21T07:29:23.799Z,7.80
2019-02-21T07:32:04.289Z,7.90
2019-02-21T07:34:44.701Z,7.90
2019-02-21T07:37:25.299Z,7.90
2019-02-21T07:40:05.899Z,7.90
2019-02-21T07:42:48.139Z,7.90
2019-02-21T07:45:28.850Z,7.90
2019-02-21T07:48:09.356Z,7.80
2019-02-21T07:50:49.986Z,7.90
2019-02-21T07:53:31.024Z,7.90
2019-02-21T07:56:11.846Z,7.90
2019-02-21T07:58:52.327Z,7.90
2019-02-21T08:01:33.091Z,7.90
2019-02-21T08:04:13.748Z,7.90
2019-02-21T08:06:55.624Z,8.00
2019-02-21T08:09:36.132Z,7.90
2019-02-21T08:12:16.971Z,7.90
2019-02-21T08:14:57.654Z,7.90
2019-02-21T08:17:38.207Z,7.80
2019-02-21T08:20:19.069Z,7.80
2019-02-21T08:22:59.794Z,7.80
2019-02-21T08:25:40.297Z,7.70
2019-02-21T08:28:21.343Z,7.70
2019-02-21T08:31:02.232Z,7.70
2019-02-21T08:33:57.990Z,7.70
2019-02-21T08:36:29.889Z,7.50
2019-02-21T08:39:10.789Z,7.60
2019-02-21T08:41:51.564Z,7.50
2019-02-21T08:44:32.438Z,7.50
2019-02-21T08:47:13.315Z,7.50
2019-02-21T08:49:54.178Z,7.50
2019-02-21T08:52:34.991Z,7.50
2019-02-21T08:55:15.725Z,7.50
2019-02-21T08:57:56.320Z,7.50
2019-02-21T09:00:37.226Z,7.60
2019-02-21T09:03:18.267Z,7.70
2019-02-21T09:05:58.811Z,7.80
2019-02-21T09:08:39.810Z,7.80
2019-02-21T09:11:20.896Z,7.80
2019-02-21T09:14:01.508Z,7.80
2019-02-21T09:16:42.494Z,7.80
2019-02-21T09:19:23.581Z,6.90
2019-02-21T09:22:04.270Z,7.90
2019-02-21T09:24:44.947Z,8.00
2019-02-21T09:27:25.751Z,7.90
2019-02-21T09:30:06.360Z,7.90
2019-02-21T09:32:47.275Z,7.90
2019-02-21T09:35:28.047Z,8.00
2019-02-21T09:38:08.755Z,8.00
2019-02-21T09:40:49.556Z,8.10
2019-02-21T09:43:30.194Z,8.10
2019-02-21T09:46:10.439Z,8.20
2019-02-21T09:48:51.477Z,8.30
2019-02-21T09:51:32.479Z,8.40
2019-02-21T09:54:13.001Z,8.40
2019-02-21T09:56:53.883Z,8.40
2019-02-21T09:59:34.733Z,8.40
2019-02-21T10:02:15.258Z,8.40
2019-02-21T10:05:04.478Z,8.40
2019-02-21T10:07:38.950Z,8.40
2019-02-21T10:10:19.816Z,8.40
2019-02-21T10:13:00.906Z,8.40
2019-02-21T10:15:42.091Z,8.50
2019-02-21T10:18:23.197Z,7.60
2019-02-21T10:21:04.223Z,8.50
2019-02-21T10:23:45.103Z,8.50
2019-02-21T10:26:25.995Z,8.60
2019-02-21T10:29:06.701Z,7.90
2019-02-21T10:31:47.386Z,8.70
2019-02-21T10:34:28.116Z,8.80
2019-02-21T10:37:09.272Z,8.90
2019-02-21T10:39:50.146Z,9.00
2019-02-21T10:42:30.838Z,9.00
2019-02-21T10:45:11.477Z,9.00
2019-02-21T10:47:52.287Z,9.00
2019-02-21T10:50:32.966Z,9.00
2019-02-21T10:53:13.853Z,9.10
2019-02-21T10:55:54.530Z,9.30
2019-02-21T10:58:34.765Z,8.20
2019-02-21T11:01:15.668Z,9.30
2019-02-21T11:03:56.411Z,9.40
2019-02-21T11:06:37.262Z,9.60
2019-02-21T11:09:17.960Z,9.50
2019-02-21T11:11:58.703Z,9.50
2019-02-21T11:14:47.319Z,9.60
2019-02-21T11:17:21.614Z,9.60
2019-02-21T11:20:02.720Z,9.70
2019-02-21T11:22:43.662Z,9.80
2019-02-21T11:25:24.462Z,9.90
2019-02-21T11:28:04.984Z,9.90
2019-02-21T11:30:45.886Z,9.90
2019-02-21T11:33:26.426Z,10.10
2019-02-21T11:36:07.289Z,10.20
2019-02-21T11:38:47.466Z,11.00
2019-02-21T11:41:28.231Z,10.40
2019-02-21T11:44:09.198Z,10.60
2019-02-21T11:46:49.764Z,10.50
2019-02-21T11:49:30.383Z,10.50
2019-02-21T11:52:10.748Z,10.50
2019-02-21T11:54:51.611Z,10.50
2019-02-21T11:57:32.819Z,10.50
2019-02-21T12:00:14.254Z,10.60
2019-02-21T12:02:55.239Z,10.70
2019-02-21T12:05:35.883Z,10.80
2019-02-21T12:08:16.474Z,11.10
2019-02-21T12:10:57.618Z,11.20
2019-02-21T12:13:38.387Z,11.20
2019-02-21T12:16:19.033Z,11.30
2019-02-21T12:18:59.622Z,11.10
2019-02-21T12:21:40.552Z,11.00
2019-02-21T12:24:21.644Z,11.00
2019-02-21T12:27:02.185Z,11.00
2019-02-21T12:29:42.714Z,11.00
2019-02-21T12:32:23.893Z,10.90
2019-02-21T12:35:04.783Z,11.00
2019-02-21T12:37:45.580Z,10.90
2019-02-21T12:40:26.479Z,10.80
2019-02-21T12:43:07.331Z,10.80
2019-02-21T12:45:47.791Z,10.80
2019-02-21T12:48:28.755Z,10.80
2019-02-21T12:51:09.706Z,10.80
2019-02-21T12:53:50.692Z,10.70
2019-02-21T12:56:31.517Z,10.80
2019-02-21T12:59:12.379Z,10.70
2019-02-21T13:01:53.275Z,10.70
2019-02-21T13:04:33.595Z,10.70
2019-02-21T13:07:14.486Z,10.70
2019-02-21T13:09:55.210Z,10.80
2019-02-21T13:12:36.061Z,10.80
2019-02-21T13:15:16.595Z,10.80
2019-02-21T13:17:57.414Z,10.80
2019-02-21T13:20:38.594Z,10.90
2019-02-21T13:23:19.619Z,10.90
2019-02-21T13:26:00.375Z,10.90
2019-02-21T13:28:41.079Z,10.90
2019-02-21T13:31:21.971Z,11.00
2019-02-21T13:34:02.399Z,11.00
2019-02-21T13:36:42.816Z,10.90
2019-02-21T13:39:23.369Z,10.90
2019-02-21T13:42:04.051Z,10.90
2019-02-21T13:44:44.846Z,10.80
2019-02-21T13:47:25.760Z,10.80
2019-02-21T13:50:06.298Z,10.80
2019-02-21T13:52:47.368Z,10.70
2019-02-21T13:55:27.822Z,10.70
2019-02-21T13:58:08.824Z,10.70
2019-02-21T14:00:49.238Z,10.70
2019-02-21T14:03:30.926Z,10.70
2019-02-21T14:06:11.881Z,10.80
2019-02-21T14:08:52.508Z,10.80
2019-02-21T14:11:33.315Z,10.70
2019-02-21T14:14:13.806Z,10.60
2019-02-21T14:16:54.724Z,10.70
2019-02-21T14:19:35.403Z,10.70
2019-02-21T14:22:15.939Z,10.60
2019-02-21T14:24:56.372Z,10.60
2019-02-21T14:27:36.870Z,10.50
2019-02-21T14:30:17.510Z,10.40
2019-02-21T14:32:58.699Z,10.30
2019-02-21T14:35:39.369Z,10.20
2019-02-21T14:38:27.887Z,10.10
2019-02-21T14:41:02.787Z,10.00
2019-02-21T14:43:43.246Z,9.90
2019-02-21T14:46:23.841Z,9.90
2019-02-21T14:49:04.630Z,9.80
2019-02-21T14:51:45.486Z,9.80
2019-02-21T14:54:26.282Z,9.80
2019-02-21T14:57:07.259Z,9.80
2019-02-21T14:59:48.088Z,9.80
2019-02-21T15:02:29.052Z,9.80
2019-02-21T15:05:10.205Z,9.80
2019-02-21T15:07:50.960Z,9.80
2019-02-21T15:10:31.668Z,9.80
2019-02-21T15:13:12.463Z,9.80
2019-02-21T15:15:53.456Z,9.90
2019-02-21T15:18:33.860Z,9.90
2019-02-21T15:21:14.807Z,10.00
2019-02-21T15:23:55.762Z,10.00
2019-02-21T15:26:36.913Z,10.00
2019-02-21T15:29:17.350Z,10.00
2019-02-21T15:31:57.988Z,10.00
2019-02-21T15:34:38.390Z,10.00
2019-02-21T15:37:19.396Z,10.00
2019-02-21T15:40:00.365Z,10.00
2019-02-21T15:42:41.207Z,10.00
2019-02-21T15:45:23.836Z,10.00
2019-02-21T15:48:04.955Z,10.00
2019-02-21T15:50:45.516Z,10.00
2019-02-21T15:53:26.222Z,10.00
2019-02-21T15:56:07.293Z,10.00
2019-02-21T15:58:47.876Z,10.00
2019-02-21T16:01:28.407Z,10.00
2019-02-21T16:04:08.888Z,10.00
2019-02-21T16:06:51.853Z,9.80
2019-02-21T16:09:31.719Z,10.10
2019-02-21T16:12:12.602Z,10.00
2019-02-21T16:14:53.462Z,10.00
2019-02-21T16:17:37.277Z,10.00
2019-02-21T16:20:16.964Z,8.50
2019-02-21T16:22:57.490Z,9.50
2019-02-21T16:25:38.376Z,10.00
2019-02-21T16:28:19.300Z,9.00
2019-02-21T16:31:00.195Z,10.10
2019-02-21T16:33:40.624Z,10.10
2019-02-21T16:36:21.520Z,10.10
2019-02-21T16:39:04.397Z,10.10
2019-02-21T16:41:45.038Z,10.10
2019-02-21T16:44:25.971Z,10.10
2019-02-21T16:47:06.566Z,10.10
2019-02-21T16:49:46.996Z,10.10
2019-02-21T16:52:27.547Z,10.10
2019-02-21T16:55:08.891Z,10.10
2019-02-21T16:57:49.642Z,10.10
2019-02-21T17:00:42.233Z,10.10
2019-02-21T17:03:13.054Z,10.10
2019-02-21T17:05:54.036Z,10.10
2019-02-21T17:08:35.104Z,10.10
2019-02-21T17:11:15.999Z,10.00
2019-02-21T17:13:56.590Z,10.10
2019-02-21T17:16:37.126Z,10.10
2019-02-21T17:19:18.272Z,10.00
2019-02-21T17:21:58.470Z,10.10
2019-02-21T17:27:21.779Z,10.10
2019-02-21T17:30:02.681Z,10.00
2019-02-21T17:32:43.444Z,10.00
2019-02-21T17:35:24.470Z,10.00
2019-02-21T17:38:05.609Z,10.10
2019-02-21T17:40:46.147Z,10.10
2019-02-21T17:43:27.036Z,10.10
2019-02-21T17:48:50.959Z,10.10
2019-02-21T17:51:31.995Z,10.00
2019-02-21T17:54:12.846Z,8.90
2019-02-21T17:56:53.553Z,10.00
2019-02-21T17:59:34.237Z,10.00
2019-02-21T18:02:14.633Z,9.20
2019-02-21T18:04:55.224Z,9.90
2019-02-21T18:07:36.689Z,9.80
2019-02-21T18:10:17.730Z,9.70
2019-02-21T18:12:58.264Z,9.70
2019-02-21T18:18:21.981Z,9.40
2019-02-21T18:21:02.782Z,9.40
2019-02-21T18:23:43.260Z,9.30
2019-02-21T18:26:23.693Z,9.20
2019-02-21T18:29:04.516Z,9.20
2019-02-21T18:31:45.107Z,9.20
2019-02-21T18:34:25.841Z,9.10
2019-02-21T18:37:06.793Z,9.10
2019-02-21T18:39:47.685Z,9.10
2019-02-21T18:42:28.190Z,9.10
2019-02-21T18:45:09.071Z,9.00
2019-02-21T18:47:49.776Z,9.00
2019-02-21T18:50:38.291Z,9.00
2019-02-21T18:53:13.455Z,9.00
2019-02-21T18:58:37.541Z,9.00
2019-02-21T19:01:18.463Z,8.90
2019-02-21T19:03:59.102Z,8.90
2019-02-21T19:06:39.960Z,8.90
2019-02-21T19:09:20.830Z,8.90
2019-02-21T19:12:01.691Z,8.90
2019-02-21T19:14:42.269Z,8.80
2019-02-21T19:17:22.862Z,8.80
2019-02-21T19:20:03.607Z,8.80
2019-02-21T19:22:44.083Z,8.80
2019-02-21T19:25:24.764Z,8.80
2019-02-21T19:28:05.347Z,8.80
2019-02-21T19:30:45.878Z,8.90
2019-02-21T19:33:26.553Z,9.00
2019-02-21T19:36:06.885Z,8.90
2019-02-21T19:38:47.803Z,8.90
2019-02-21T19:41:28.422Z,8.90
2019-02-21T19:44:09.415Z,8.80
2019-02-21T19:46:49.697Z,8.90
2019-02-21T19:49:30.354Z,8.80
2019-02-21T19:52:10.918Z,8.90
2019-02-21T19:54:51.284Z,7.50
2019-02-21T19:57:32.321Z,8.90
2019-02-21T20:00:13.257Z,8.80
2019-02-21T20:02:54.039Z,8.80
2019-02-21T20:05:34.624Z,8.90
2019-02-21T20:08:21.528Z,8.90
2019-02-21T20:10:57.727Z,9.00
2019-02-21T20:13:38.282Z,8.90
2019-02-21T20:16:19.067Z,8.90
2019-02-21T20:18:59.472Z,8.90
2019-02-21T20:21:40.091Z,8.90
2019-02-21T20:24:20.612Z,8.90
2019-02-21T20:27:01.122Z,8.90
2019-02-21T20:29:41.908Z,8.90
2019-02-21T20:32:22.339Z,8.90
2019-02-21T20:35:03.373Z,8.90
2019-02-21T20:37:43.836Z,8.90
2019-02-21T20:40:27.271Z,8.90
2019-02-21T20:43:08.325Z,8.90
2019-02-21T20:45:53.186Z,8.90
2019-02-21T20:48:31.543Z,8.80
2019-02-21T20:51:12.259Z,8.80
2019-02-21T20:53:52.517Z,8.90
2019-02-21T20:56:33.378Z,8.80
2019-02-21T20:59:14.322Z,8.90
2019-02-21T21:01:55.070Z,8.90
2019-02-21T21:04:35.885Z,8.90
2019-02-21T21:07:24.916Z,8.90
2019-02-21T21:09:59.135Z,8.90
2019-02-21T21:12:39.660Z,8.90
2019-02-21T21:15:20.548Z,8.90
2019-02-21T21:18:01.130Z,9.00
2019-02-21T21:20:42.115Z,9.00
2019-02-21T21:23:23.019Z,9.00
2019-02-21T21:26:03.799Z,9.00
2019-02-21T21:28:44.412Z,9.00
2019-02-21T21:31:25.202Z,9.00
2019-02-21T21:34:05.883Z,9.00
2019-02-21T21:36:46.603Z,8.90
2019-02-21T21:39:27.423Z,9.00
2019-02-21T21:42:08.439Z,9.00
2019-02-21T21:44:48.950Z,9.00
2019-02-21T21:47:29.383Z,9.00
2019-02-21T21:50:09.928Z,9.00
2019-02-21T21:52:50.533Z,9.00
2019-02-21T21:55:31.047Z,9.10
2019-02-21T21:58:12.973Z,9.10
2019-02-21T22:00:53.828Z,9.20
2019-02-21T22:03:34.847Z,9.20
2019-02-21T22:06:15.909Z,9.20
2019-02-21T22:09:04.538Z,9.20
2019-02-21T22:11:38.573Z,9.20
2019-02-21T22:14:19.105Z,9.20
2019-02-21T22:17:00.138Z,9.20
2019-02-21T22:19:41.174Z,9.30
2019-02-21T22:22:21.764Z,9.30
2019-02-21T22:25:02.331Z,9.20
2019-02-21T22:27:43.036Z,9.30
2019-02-21T22:30:23.882Z,9.20
2019-02-21T22:33:04.819Z,9.20
2019-02-21T22:35:45.486Z,9.20
2019-02-21T22:38:26.031Z,9.20
2019-02-21T22:41:06.722Z,9.20
2019-02-21T22:43:47.398Z,9.20
2019-02-21T22:46:28.050Z,9.20
2019-02-21T22:49:09.083Z,9.20
2019-02-21T22:51:50.151Z,9.20
2019-02-21T22:54:31.062Z,9.20
2019-02-21T22:57:11.657Z,9.20
2019-02-21T22:59:52.211Z,9.20
2019-02-21T23:02:33.186Z,9.20
2019-02-21T23:05:14.115Z,9.20
2019-02-21T23:07:55.355Z,9.20
2019-02-21T23:10:36.277Z,9.20
2019-02-21T23:13:17.182Z,9.20
2019-02-21T23:15:58.103Z,9.20
2019-02-21T23:18:39.055Z,9.20
2019-02-21T23:21:19.670Z,9.20
2019-02-21T23:24:00.336Z,9.20
2019-02-21T23:26:41.156Z,9.20
2019-02-21T23:29:22.050Z,9.20
2019-02-21T23:32:03.462Z,9.20
2019-02-21T23:34:44.310Z,9.20
2019-02-21T23:37:24.684Z,9.20
2019-02-21T23:40:05.511Z,9.20
2019-02-21T23:42:46.176Z,9.20
2019-02-21T23:45:26.623Z,9.20
2019-02-21T23:48:07.313Z,9.10
2019-02-21T23:50:48.102Z,9.20
2019-02-21T23:53:28.678Z,9.20
2019-02-21T23:56:09.357Z,9.10
2019-02-21T23:58:49.946Z,9.10
